createdAt,value
2023-12-05T00:05:56.571Z,9.303658
2023-12-05T00:07:02.092Z,9.303581
2023-12-05T00:11:38.837Z,9.303730
2023-12-05T00:23:07.640Z,9.303671
2023-12-05T00:23:29.354Z,9.303816
2023-12-05T00:24:29.313Z,9.303310
2023-12-05T00:26:03.137Z,9.303371
2023-12-05T00:27:03.405Z,9.303635
2023-12-05T00:27:31.041Z,9.303415
2023-12-05T00:29:05.378Z,9.303103
2023-12-05T00:29:30.485Z,9.303135
2023-12-05T00:30:33.458Z,9.303188
2023-12-05T00:32:14.350Z,9.303334
2023-12-05T00:44:55.223Z,9.302858
2023-12-05T00:46:44.153Z,9.302988
2023-12-05T00:46:56.026Z,9.302876
2023-12-05T00:48:40.582Z,9.302905
2023-12-05T00:48:55.977Z,9.302923
2023-12-05T00:49:55.329Z,9.302934
2023-12-05T00:51:00.304Z,9.303025
2023-12-05T00:56:27.263Z,9.303135
2023-12-05T00:57:26.519Z,9.303123
2023-12-05T00:58:28.781Z,9.302993
2023-12-05T00:59:27.267Z,9.303102
2023-12-05T01:00:28.532Z,9.303090
2023-12-05T01:01:26.493Z,9.303167
2023-12-05T01:02:28.262Z,9.303053
2023-12-05T01:03:31.393Z,9.302993
2023-12-05T01:04:28.362Z,9.303003
2023-12-05T01:05:26.627Z,9.302952
2023-12-05T01:06:27.223Z,9.303045
2023-12-05T01:07:26.768Z,9.303009
2023-12-05T01:08:27.196Z,9.303096
2023-12-05T01:09:31.757Z,9.303090
2023-12-05T01:10:26.460Z,9.303061
2023-12-05T01:11:31.803Z,9.303035
2023-12-05T01:12:26.314Z,9.302950
2023-12-05T01:13:30.224Z,9.302911
2023-12-05T01:15:00.021Z,9.302940
2023-12-05T01:15:28.498Z,9.302880
2023-12-05T01:16:26.440Z,9.302771
2023-12-05T01:17:26.251Z,9.302879
2023-12-05T01:19:03.639Z,9.302897
2023-12-05T01:19:26.992Z,9.302884
2023-12-05T01:20:26.244Z,9.303048
2023-12-05T01:21:27.523Z,9.303130
2023-12-05T01:23:11.754Z,9.303045
2023-12-05T01:23:27.411Z,9.302936
2023-12-05T01:24:29.846Z,9.303121
2023-12-05T01:25:26.094Z,9.303191
2023-12-05T01:26:26.812Z,9.303188
2023-12-05T01:27:27.863Z,9.303172
2023-12-05T01:28:29.365Z,9.303077
2023-12-05T01:29:27.818Z,9.303079
2023-12-05T01:30:28.899Z,9.303084
2023-12-05T01:31:26.998Z,9.302966
2023-12-05T01:46:06.912Z,9.302846
2023-12-05T01:47:08.997Z,9.302946
2023-12-05T01:48:06.888Z,9.302818
2023-12-05T02:15:31.879Z,9.303140
2023-12-05T02:23:48.430Z,9.303065
2023-12-05T02:24:49.850Z,9.303005
2023-12-05T02:25:48.941Z,9.302968
2023-12-05T02:44:55.052Z,9.302965
2023-12-05T02:46:08.491Z,9.303001
2023-12-05T02:46:59.543Z,9.303143
2023-12-05T02:47:58.183Z,9.303428
2023-12-05T02:48:57.713Z,9.302999
2023-12-05T02:49:55.981Z,9.302709
2023-12-05T03:27:53.446Z,9.303446
2023-12-05T03:28:53.294Z,9.303213
2023-12-05T03:29:20.184Z,9.302846
2023-12-05T03:31:05.358Z,9.303214
2023-12-05T03:31:21.631Z,9.302694
2023-12-05T03:32:20.082Z,9.302435
2023-12-05T03:33:19.284Z,9.303705
2023-12-05T03:34:23.631Z,9.303417
2023-12-05T03:35:56.054Z,9.303644
2023-12-05T03:36:20.212Z,9.303644
2023-12-05T03:37:21.232Z,9.303546
2023-12-05T03:56:05.639Z,9.303185
2023-12-05T03:57:05.043Z,9.303327
2023-12-05T03:58:05.016Z,9.303736
2023-12-05T03:59:04.137Z,9.303237
2023-12-05T04:00:05.170Z,9.303594
2023-12-05T04:01:04.141Z,9.302914
2023-12-05T04:02:06.658Z,9.302824
2023-12-05T05:41:57.540Z,9.303217
2023-12-05T05:42:57.719Z,9.303257
2023-12-05T05:43:55.547Z,9.303157
2023-12-05T05:44:23.420Z,9.303224
2023-12-05T05:45:25.874Z,9.303199
2023-12-05T05:46:25.804Z,9.303166
2023-12-05T05:47:24.817Z,9.303153
2023-12-05T05:48:23.171Z,9.303224
2023-12-05T05:56:35.863Z,9.303049
2023-12-05T05:57:36.980Z,9.303300
2023-12-05T07:22:20.632Z,9.303025
2023-12-05T07:23:21.556Z,9.302994
2023-12-05T07:24:19.756Z,9.303214
2023-12-05T07:25:18.635Z,9.303103
2023-12-05T07:26:19.710Z,9.303328
2023-12-05T07:27:19.661Z,9.303208
2023-12-05T07:28:20.620Z,9.303267
2023-12-05T07:29:19.190Z,9.303190
2023-12-05T07:30:19.640Z,9.303125
2023-12-05T07:31:22.117Z,9.302969
2023-12-05T07:32:21.053Z,9.303042
2023-12-05T07:33:18.579Z,9.303102
2023-12-05T07:34:18.529Z,9.303025
2023-12-05T07:35:19.483Z,9.303052
2023-12-05T07:36:19.628Z,9.303031
2023-12-05T07:37:21.124Z,9.302978
2023-12-05T07:38:20.613Z,9.303041
2023-12-05T07:39:18.445Z,9.302961
2023-12-05T07:40:18.417Z,9.303058
2023-12-05T07:41:19.508Z,9.303039
2023-12-05T07:42:23.154Z,9.302947
2023-12-05T07:43:20.612Z,9.302915
2023-12-05T07:44:19.405Z,9.303064
2023-12-05T07:45:20.124Z,9.303095
2023-12-05T07:46:20.514Z,9.302970
2023-12-05T07:47:19.375Z,9.302926
2023-12-05T07:48:19.296Z,9.302953
2023-12-05T07:49:18.409Z,9.302995
2023-12-05T07:50:22.134Z,9.302988
2023-12-05T07:51:20.175Z,9.303004
2023-12-05T07:52:19.109Z,9.302986
2023-12-05T07:53:20.018Z,9.303001
2023-12-05T07:54:20.663Z,9.303113
2023-12-05T07:55:25.607Z,9.303094
2023-12-05T07:56:18.453Z,9.303023
2023-12-05T07:57:18.286Z,9.303023
2023-12-05T07:58:18.263Z,9.302931
2023-12-05T07:59:19.260Z,9.302978
2023-12-05T08:00:19.477Z,9.303014
2023-12-05T08:01:21.619Z,9.303009
2023-12-05T08:02:19.230Z,9.303056
2023-12-05T08:03:20.269Z,9.303125
2023-12-05T08:04:18.299Z,9.303064
2023-12-05T08:05:18.288Z,9.302954
2023-12-05T08:06:18.206Z,9.303018
2023-12-05T08:07:19.192Z,9.302981
2023-12-05T08:08:20.931Z,9.303003
2023-12-05T08:09:19.352Z,9.302928
2023-12-05T08:10:19.608Z,9.302962
2023-12-05T08:11:20.202Z,9.303006
2023-12-05T08:12:18.191Z,9.302961
2023-12-05T08:13:19.658Z,9.303060
2023-12-05T08:14:19.293Z,9.302992
2023-12-05T08:15:19.323Z,9.303043
2023-12-05T08:16:18.111Z,9.302908
2023-12-05T08:17:18.614Z,9.303026
2023-12-05T08:18:21.119Z,9.303059
2023-12-05T08:19:18.208Z,9.303203
2023-12-05T08:20:18.609Z,9.302952
2023-12-05T08:21:18.056Z,9.303183
2023-12-05T08:22:18.630Z,9.303101
2023-12-05T08:23:19.084Z,9.303041
2023-12-05T08:24:20.718Z,9.303049
2023-12-05T08:25:21.642Z,9.303061
2023-12-05T08:26:18.609Z,9.303103
2023-12-05T08:27:19.001Z,9.302929
2023-12-05T08:28:18.991Z,9.303005
2023-12-05T08:29:20.496Z,9.303070
2023-12-05T08:30:19.626Z,9.303116
2023-12-05T08:31:17.922Z,9.302996
2023-12-05T08:32:20.643Z,9.302922
2023-12-05T08:33:21.720Z,9.302891
2023-12-05T08:34:19.683Z,9.302995
2023-12-05T08:35:19.137Z,9.302853
2023-12-05T08:36:55.832Z,9.303035
2023-12-05T08:37:20.289Z,9.302969
2023-12-05T08:38:18.131Z,9.303001
2023-12-05T08:40:01.524Z,9.302976
2023-12-05T08:40:18.120Z,9.302981
2023-12-05T08:41:53.359Z,9.303061
2023-12-05T08:42:18.494Z,9.303161
2023-12-05T08:43:19.726Z,9.303082
2023-12-05T08:45:00.052Z,9.303253
2023-12-05T09:22:24.775Z,9.303059
2023-12-05T09:23:27.400Z,9.303200
2023-12-05T09:30:14.351Z,9.303184
2023-12-05T09:31:13.842Z,9.303315
2023-12-05T09:32:12.830Z,9.303164
2023-12-05T09:33:12.822Z,9.303031
2023-12-05T09:34:13.211Z,9.303002
2023-12-05T09:35:11.994Z,9.303077
2023-12-05T09:36:13.037Z,9.303162
2023-12-05T09:37:48.170Z,9.303163
2023-12-05T09:38:16.974Z,9.303154
2023-12-05T09:47:57.046Z,9.303101
2023-12-05T09:48:08.595Z,9.303101
2023-12-05T09:49:04.687Z,9.303077
2023-12-05T09:50:05.967Z,9.302969
2023-12-05T09:56:59.077Z,9.303061
2023-12-05T09:57:54.322Z,9.303091
2023-12-05T09:58:54.048Z,9.302976
2023-12-05T09:59:53.157Z,9.302763
2023-12-05T10:00:53.100Z,9.302855
2023-12-05T10:01:53.236Z,9.302559
2023-12-05T10:02:53.152Z,9.302980
2023-12-05T10:09:40.097Z,9.303006
2023-12-05T10:10:40.060Z,9.302947
2023-12-05T10:11:42.323Z,9.303020
2023-12-05T10:12:40.850Z,9.303232
2023-12-05T10:13:40.061Z,9.303400
2023-12-05T10:14:40.944Z,9.303030
2023-12-05T10:15:40.149Z,9.303041
2023-12-05T10:16:42.327Z,9.303335
2023-12-05T10:17:41.894Z,9.303230
2023-12-05T10:18:41.117Z,9.303123
2023-12-05T10:19:43.883Z,9.303096
2023-12-05T10:20:41.906Z,9.302930
2023-12-05T10:21:40.853Z,9.303061
2023-12-05T10:22:41.794Z,9.303037
2023-12-05T10:23:40.851Z,9.302935
2023-12-05T10:24:40.125Z,9.303008
2023-12-05T10:25:42.036Z,9.303184
2023-12-05T10:26:39.884Z,9.303089
2023-12-05T10:27:39.906Z,9.303081
2023-12-05T10:28:40.673Z,9.303119
2023-12-05T10:29:40.958Z,9.303056
2023-12-05T10:30:39.858Z,9.303020
2023-12-05T10:31:39.946Z,9.303061
2023-12-05T10:32:39.938Z,9.303053
2023-12-05T10:33:40.765Z,9.303024
2023-12-05T10:34:41.302Z,9.303138
2023-12-05T10:35:42.565Z,9.303096
2023-12-05T10:36:40.369Z,9.303121
2023-12-05T10:37:39.783Z,9.303197
2023-12-05T10:38:42.573Z,9.303028
2023-12-05T10:39:39.910Z,9.303038
2023-12-05T10:40:39.731Z,9.303034
2023-12-05T10:41:39.707Z,9.302996
2023-12-05T10:42:41.702Z,9.303060
2023-12-05T10:43:40.792Z,9.302907
2023-12-05T10:44:41.684Z,9.302908
2023-12-05T10:45:41.355Z,9.303012
2023-12-05T10:46:40.297Z,9.303045
2023-12-05T10:47:42.315Z,9.303043
2023-12-05T10:48:42.367Z,9.303070
2023-12-05T10:49:40.304Z,9.303015
2023-12-05T11:04:05.906Z,9.302934
2023-12-05T11:05:05.848Z,9.302745
2023-12-05T11:06:03.548Z,9.303445
2023-12-05T11:07:04.400Z,9.303086
2023-12-05T11:08:03.653Z,9.302762
2023-12-05T11:09:04.307Z,9.302909
2023-12-05T11:10:03.612Z,9.302909
2023-12-05T11:11:05.349Z,9.301240
2023-12-05T11:12:04.192Z,9.301240
2023-12-05T11:13:25.767Z,9.301240
2023-12-05T11:14:04.486Z,9.301240
2023-12-05T11:15:04.832Z,9.301240
2023-12-05T11:16:04.975Z,9.301240
2023-12-05T11:17:05.338Z,9.302804
2023-12-05T11:18:26.538Z,9.302642
2023-12-05T11:19:19.811Z,9.303182
2023-12-05T11:20:19.967Z,9.303649
2023-12-05T11:21:12.845Z,9.302851
2023-12-05T11:22:14.337Z,9.302847
2023-12-05T11:23:18.437Z,9.302640
2023-12-05T11:24:15.631Z,9.303347
2023-12-05T11:25:18.326Z,9.303857
2023-12-05T11:26:20.122Z,9.303630
2023-12-05T11:27:08.359Z,9.303264
2023-12-05T11:28:09.019Z,9.303208
2023-12-05T11:29:09.210Z,9.303309
2023-12-05T11:30:09.124Z,9.303289
2023-12-05T11:31:12.847Z,9.303991
2023-12-05T11:32:05.553Z,9.303162
2023-12-05T11:33:04.945Z,9.302420
2023-12-05T11:34:04.537Z,9.302395
2023-12-05T11:35:04.560Z,9.302704
2023-12-05T11:36:05.433Z,9.302810
2023-12-05T11:37:03.755Z,9.301815
2023-12-05T11:38:03.394Z,9.302040
2023-12-05T11:39:04.543Z,9.303193
2023-12-05T11:40:06.536Z,9.303232
2023-12-05T11:41:03.729Z,9.303180
2023-12-05T11:42:04.470Z,9.303034
2023-12-05T11:43:03.606Z,9.303095
2023-12-05T11:44:08.574Z,9.303052
2023-12-05T11:45:11.158Z,9.302819
2023-12-05T11:46:04.716Z,9.302802
2023-12-05T11:47:05.949Z,9.302639
2023-12-05T11:48:15.564Z,9.302784
2023-12-05T11:49:12.514Z,9.302847
2023-12-05T11:50:20.396Z,9.302945
2023-12-05T11:51:36.494Z,9.303021
2023-12-05T11:52:41.084Z,9.302991
2023-12-05T13:01:35.394Z,9.303165
2023-12-05T13:02:35.952Z,9.303164
2023-12-05T13:03:36.464Z,9.303132
2023-12-05T13:04:37.966Z,9.303072
2023-12-05T13:05:36.102Z,9.303195
2023-12-05T13:06:35.970Z,9.303232
2023-12-05T13:07:35.121Z,9.303212
2023-12-05T13:16:46.837Z,9.302933
2023-12-05T13:17:46.281Z,9.302876
2023-12-05T13:18:10.700Z,9.302767
2023-12-05T13:19:45.356Z,9.302911
2023-12-05T13:28:00.065Z,9.303860
2023-12-05T13:28:24.560Z,9.303637
2023-12-05T13:29:59.406Z,9.303516
2023-12-05T13:30:25.597Z,9.303432
2023-12-05T13:32:13.409Z,9.303512
2023-12-05T13:32:24.514Z,9.303590
2023-12-05T13:33:24.789Z,9.303601
2023-12-05T13:35:03.365Z,9.303350
2023-12-05T13:35:25.684Z,9.303309
2023-12-05T13:36:24.651Z,9.303233
2023-12-05T13:37:27.923Z,9.303303
2023-12-05T13:38:25.005Z,9.303191
2023-12-05T13:39:24.974Z,9.303214
2023-12-05T13:40:24.007Z,9.303339
2023-12-05T13:41:25.953Z,9.303264
2023-12-05T13:42:24.030Z,9.303100
2023-12-05T13:43:25.505Z,9.303055
2023-12-05T13:44:27.505Z,9.303169
2023-12-05T13:45:25.245Z,9.303125
2023-12-05T13:46:30.497Z,9.303119
2023-12-05T13:47:23.488Z,9.303232
2023-12-05T14:45:26.584Z,9.302518
2023-12-05T14:46:24.218Z,9.302637
2023-12-05T14:47:23.595Z,9.302799
2023-12-05T14:48:22.965Z,9.302823
2023-12-05T14:49:23.222Z,9.302853
2023-12-05T14:50:23.010Z,9.302980
2023-12-05T14:51:24.429Z,9.303030
2023-12-05T14:52:23.003Z,9.303093
2023-12-05T14:53:22.946Z,9.302970
2023-12-05T14:54:23.441Z,9.302914
2023-12-05T14:55:22.717Z,9.302917
2023-12-05T14:56:22.940Z,9.302922
2023-12-05T14:57:25.547Z,9.302918
2023-12-05T14:58:22.747Z,9.303016
2023-12-05T14:59:22.732Z,9.303028
2023-12-05T15:00:23.233Z,9.303013
2023-12-05T15:01:22.860Z,9.302971
2023-12-05T15:02:23.060Z,9.303098
2023-12-05T15:03:23.001Z,9.302958
2023-12-05T15:04:22.890Z,9.302942
2023-12-05T15:05:22.951Z,9.302885
2023-12-05T15:06:22.678Z,9.302898
2023-12-05T15:07:22.815Z,9.302946
2023-12-05T15:08:22.664Z,9.303036
2023-12-05T15:09:22.765Z,9.303045
2023-12-05T15:10:22.690Z,9.303021
2023-12-05T15:11:22.726Z,9.302924
2023-12-05T15:12:22.680Z,9.303004
2023-12-05T15:13:22.671Z,9.302951
2023-12-05T15:14:22.896Z,9.302964
2023-12-05T15:15:23.594Z,9.302992
2023-12-05T15:16:22.865Z,9.302887
2023-12-05T15:17:22.720Z,9.303052
2023-12-05T15:18:23.615Z,9.303020
2023-12-05T15:19:24.336Z,9.302989
2023-12-05T15:20:24.332Z,9.302868
2023-12-05T15:21:26.095Z,9.302884
2023-12-05T15:22:22.771Z,9.302752
2023-12-05T15:23:23.011Z,9.302815
2023-12-05T15:24:22.744Z,9.302606
2023-12-05T15:25:22.541Z,9.302345
2023-12-05T15:26:23.739Z,9.302455
2023-12-05T15:27:22.677Z,9.302919
2023-12-05T15:28:22.671Z,9.303070
2023-12-05T15:29:28.518Z,9.303011
2023-12-05T15:30:23.591Z,9.303091
2023-12-05T15:31:23.146Z,9.302884
2023-12-05T15:32:24.709Z,9.302861
2023-12-05T15:33:22.544Z,9.302936
2023-12-05T15:34:22.523Z,9.303010
2023-12-05T15:35:22.638Z,9.302949
2023-12-05T15:36:22.380Z,9.302937
2023-12-05T15:37:22.871Z,9.302981
2023-12-05T15:38:22.385Z,9.302987
2023-12-05T15:39:22.796Z,9.302975
2023-12-05T15:40:22.564Z,9.302943
2023-12-05T15:41:22.563Z,9.302893
2023-12-05T15:42:22.458Z,9.302821
2023-12-05T15:43:22.587Z,9.302670
2023-12-05T15:44:23.181Z,9.302768
2023-12-05T15:45:22.064Z,9.302809
2023-12-05T15:46:22.061Z,9.302933
2023-12-05T15:47:22.244Z,9.302922
2023-12-05T15:48:43.214Z,9.302869
2023-12-05T15:49:23.127Z,9.303026
2023-12-05T15:50:22.065Z,9.302973
2023-12-05T15:51:21.967Z,9.302855
2023-12-05T15:52:22.005Z,9.302743
2023-12-05T15:53:21.954Z,9.302778
2023-12-05T15:54:21.937Z,9.302672
2023-12-05T15:55:23.578Z,9.302926
2023-12-05T15:56:21.941Z,9.302899
2023-12-05T15:57:22.188Z,9.302837
2023-12-05T15:58:21.881Z,9.303123
2023-12-05T15:59:21.902Z,9.303072
2023-12-05T16:00:21.875Z,9.302971
2023-12-05T16:01:23.658Z,9.302931
2023-12-05T16:02:21.872Z,9.302848
2023-12-05T16:03:21.883Z,9.302722
2023-12-05T16:04:21.915Z,9.302727
2023-12-05T16:05:21.831Z,9.302897
2023-12-05T16:06:21.828Z,9.302863
2023-12-05T16:07:23.998Z,9.302994
2023-12-05T16:08:21.778Z,9.303025
2023-12-05T16:09:22.036Z,9.302933
2023-12-05T16:10:23.397Z,9.302929
2023-12-05T16:11:28.354Z,9.302993
2023-12-05T16:12:28.927Z,9.302808
2023-12-05T16:13:54.404Z,9.302966
2023-12-05T16:14:37.960Z,9.302925
2023-12-05T16:15:21.805Z,9.302929
2023-12-05T16:16:21.707Z,9.302921
2023-12-05T16:17:21.880Z,9.302863
2023-12-05T16:18:21.811Z,9.302963
2023-12-05T16:19:21.793Z,9.302902
2023-12-05T16:20:21.704Z,9.302847
2023-12-05T16:21:21.644Z,9.302857
2023-12-05T16:22:21.668Z,9.302800
2023-12-05T16:23:23.660Z,9.302647
2023-12-05T16:24:21.661Z,9.302659
2023-12-05T16:25:21.629Z,9.302758
2023-12-05T16:26:21.639Z,9.302862
2023-12-05T16:46:19.920Z,9.303057
2023-12-05T17:30:11.589Z,9.302763
2023-12-05T17:30:36.634Z,9.302836
2023-12-05T17:31:35.827Z,9.303309
2023-12-05T17:32:35.858Z,9.303147
2023-12-05T17:33:36.758Z,9.302889
2023-12-05T17:35:09.818Z,9.302785
2023-12-05T17:35:35.979Z,9.302742
2023-12-05T17:37:08.432Z,9.302697
2023-12-05T17:37:36.468Z,9.302895
2023-12-05T17:38:36.830Z,9.302852
2023-12-05T17:40:10.704Z,9.302704
2023-12-05T17:40:35.933Z,9.302882
2023-12-05T17:41:35.894Z,9.303212
2023-12-05T17:42:35.755Z,9.302753
2023-12-05T17:44:12.167Z,9.302644
2023-12-05T17:44:36.078Z,9.302679
2023-12-05T17:46:09.742Z,9.302593
2023-12-05T17:47:09.227Z,9.302898
2023-12-05T17:47:35.822Z,9.302830
2023-12-05T17:48:36.008Z,9.302737
2023-12-05T17:50:10.226Z,9.302732
2023-12-05T17:50:35.887Z,9.302745
2023-12-05T17:51:35.934Z,9.302870
2023-12-05T17:52:35.688Z,9.302748
2023-12-05T17:54:10.828Z,9.302558
2023-12-05T17:54:35.910Z,9.302669
2023-12-05T17:56:08.461Z,9.302929
2023-12-05T17:56:37.748Z,9.302958
2023-12-05T17:58:02.971Z,9.302912
2023-12-05T17:58:37.126Z,9.302617
2023-12-05T18:00:10.901Z,9.302431
2023-12-05T18:00:36.061Z,9.302592
2023-12-05T18:01:36.811Z,9.302720
2023-12-05T18:02:36.718Z,9.302713
2023-12-05T18:03:35.774Z,9.302936
2023-12-05T18:04:35.632Z,9.303142
2023-12-05T18:05:36.168Z,9.303070
2023-12-05T18:06:35.538Z,9.302922
2023-12-05T18:07:53.726Z,9.302986
2023-12-05T18:09:04.640Z,9.303069
2023-12-05T18:09:36.396Z,9.303059
2023-12-05T18:10:36.513Z,9.302947
2023-12-05T18:11:36.631Z,9.302939
2023-12-05T18:12:35.761Z,9.303024
2023-12-05T18:13:35.545Z,9.303106
2023-12-05T18:14:35.521Z,9.302832
2023-12-05T18:15:35.854Z,9.302876
2023-12-05T18:16:35.457Z,9.302840
2023-12-05T18:17:35.410Z,9.302771
2023-12-05T18:18:35.907Z,9.302970
2023-12-05T18:19:35.515Z,9.302950
2023-12-05T18:20:35.588Z,9.302853
2023-12-05T18:30:04.303Z,9.302040
2023-12-05T18:31:04.008Z,9.302330
2023-12-05T18:32:03.922Z,9.302775
2023-12-05T18:33:05.084Z,9.302865
2023-12-05T18:50:09.365Z,9.302965
2023-12-05T18:50:55.827Z,9.303100
2023-12-05T18:51:59.037Z,9.303025
2023-12-05T18:53:09.768Z,9.303114
2023-12-05T18:55:04.154Z,9.303115
2023-12-05T18:55:13.108Z,9.303115
2023-12-05T18:56:10.730Z,9.303128
2023-12-05T18:57:12.538Z,9.303105
2023-12-05T18:58:24.341Z,9.303138
2023-12-05T18:59:13.497Z,9.303072
2023-12-05T19:00:18.798Z,9.303035
2023-12-05T19:01:11.866Z,9.302994
2023-12-05T19:02:23.348Z,9.303055
2023-12-05T19:03:11.012Z,9.303075
2023-12-05T19:04:19.441Z,9.303108
2023-12-05T19:05:10.132Z,9.303158
2023-12-05T19:06:42.729Z,9.303132
2023-12-05T19:07:10.358Z,9.303115
2023-12-05T19:08:44.609Z,9.303241
2023-12-05T19:09:43.781Z,9.303201
2023-12-05T19:10:43.580Z,9.302507
2023-12-05T19:11:42.560Z,9.303039
2023-12-05T19:12:42.559Z,9.303305
2023-12-05T19:13:43.717Z,9.303263
2023-12-05T19:14:43.622Z,9.302911
2023-12-05T19:15:44.134Z,9.303098
2023-12-05T19:16:10.425Z,9.303153
2023-12-05T19:17:10.045Z,9.302960
2023-12-05T19:18:45.373Z,9.303074
2023-12-05T19:19:10.549Z,9.302995
2023-12-05T19:20:42.708Z,9.302838
2023-12-05T19:21:10.085Z,9.302917
2023-12-05T19:22:10.325Z,9.303027
2023-12-05T19:23:45.073Z,9.303282
2023-12-05T19:24:10.418Z,9.303418
2023-12-05T19:25:37.847Z,9.303591
2023-12-05T19:26:10.227Z,9.303216
2023-12-05T19:27:44.072Z,9.303803
2023-12-05T19:28:10.350Z,9.303557
2023-12-05T19:29:42.515Z,9.303512
2023-12-05T19:30:10.146Z,9.303282
2023-12-05T19:31:42.557Z,9.303267
2023-12-05T19:32:10.005Z,9.303109
2023-12-05T19:33:10.307Z,9.302833
2023-12-05T19:34:49.610Z,9.302774
2023-12-05T19:35:10.840Z,9.302949
2023-12-05T19:36:10.317Z,9.302973
2023-12-05T19:37:09.825Z,9.303095
2023-12-05T19:38:10.043Z,9.303109
2023-12-05T19:58:11.532Z,9.303151
2023-12-05T19:59:12.717Z,9.303256
2023-12-05T20:00:14.044Z,9.303288
2023-12-05T20:01:15.045Z,9.303277
2023-12-05T20:01:39.084Z,9.303308
2023-12-05T20:02:39.832Z,9.303357
2023-12-05T20:03:38.935Z,9.303313
2023-12-05T20:05:13.902Z,9.303212
2023-12-05T20:05:39.175Z,9.303201
2023-12-05T20:06:39.092Z,9.303213
2023-12-05T20:07:39.459Z,9.303086
2023-12-05T20:08:38.741Z,9.303057
2023-12-05T20:09:38.841Z,9.303165
2023-12-05T20:11:11.382Z,9.303246
2023-12-05T20:11:38.911Z,9.303148
2023-12-05T20:13:13.559Z,9.303287
2023-12-05T20:13:38.793Z,9.303391
2023-12-05T20:15:12.827Z,9.303269
2023-12-05T20:16:11.294Z,9.303419
2023-12-05T20:17:11.514Z,9.303053
2023-12-05T20:17:38.812Z,9.303152
2023-12-05T20:19:12.805Z,9.302919
2023-12-05T21:19:37.059Z,9.302958
2023-12-05T21:36:00.148Z,9.304037
2023-12-05T21:37:00.250Z,9.304112
2023-12-05T21:38:34.332Z,9.304240
2023-12-05T21:39:00.338Z,9.304572
2023-12-05T21:40:00.324Z,9.304769
2023-12-05T21:46:15.593Z,9.303581
2023-12-05T21:47:15.454Z,9.303803
2023-12-05T21:48:16.633Z,9.303447
2023-12-05T21:49:15.547Z,9.303164
2023-12-05T21:50:15.364Z,9.303056
2023-12-05T21:51:15.396Z,9.303435
2023-12-05T21:52:15.477Z,9.303374
2023-12-05T22:02:50.142Z,9.303810
2023-12-05T22:03:54.581Z,9.303103
2023-12-05T22:42:59.873Z,9.302753
2023-12-05T22:43:59.974Z,9.303112
2023-12-05T22:44:59.609Z,9.303112
2023-12-05T22:45:59.539Z,9.303112
2023-12-05T22:46:59.567Z,9.303112
2023-12-05T22:47:59.583Z,9.303729
2023-12-05T23:47:21.868Z,9.302959
2023-12-05T23:47:27.458Z,9.302959
2023-12-05T23:48:59.984Z,9.302913
2023-12-05T23:49:27.617Z,9.302853
2023-12-05T23:50:27.471Z,9.302800
2023-12-05T23:51:28.223Z,9.302935
2023-12-05T23:52:27.185Z,9.302870
2023-12-05T23:53:59.809Z,9.302704
2023-12-05T23:54:27.593Z,9.302823
2023-12-05T23:55:27.472Z,9.303015
2023-12-05T23:56:27.207Z,9.303165
2023-12-05T23:57:27.255Z,9.303113
2023-12-05T23:58:27.301Z,9.302960
2023-12-05T23:59:27.159Z,9.302951
